createdAt,value
2023-04-04T00:01:12.790Z,2.17
2023-04-04T00:03:41.593Z,2.12
2023-04-04T00:06:09.775Z,2.04
2023-04-04T00:08:39.203Z,2.12
2023-04-04T00:11:08.017Z,2.11
2023-04-04T00:13:36.166Z,2.13
2023-04-04T00:16:04.380Z,2.13
2023-04-04T00:18:32.830Z,2.12
2023-04-04T00:21:02.051Z,2.12
2023-04-04T00:23:30.153Z,2.03
2023-04-04T00:26:00.119Z,2.13
2023-04-04T00:28:28.630Z,2.12
2023-04-04T00:30:57.084Z,2.04
2023-04-04T00:33:26.321Z,2.07
2023-04-04T00:35:58.719Z,2.10
2023-04-04T00:38:27.242Z,2.14
2023-04-04T00:40:55.997Z,2.07
2023-04-04T00:43:26.085Z,2.08
2023-04-04T00:45:55.066Z,2.03
2023-04-04T00:48:25.517Z,2.07
2023-04-04T00:50:53.785Z,2.02
2023-04-04T00:53:22.442Z,2.01
2023-04-04T00:55:50.572Z,1.99
2023-04-04T00:58:20.926Z,2.00
2023-04-04T01:00:50.637Z,2.00
2023-04-04T01:03:19.575Z,2.00
2023-04-04T01:05:47.571Z,1.97
2023-04-04T01:08:15.926Z,1.94
2023-04-04T01:10:43.969Z,1.92
2023-04-04T01:13:12.054Z,1.92
2023-04-04T01:15:41.139Z,1.70
2023-04-04T01:18:13.393Z,1.77
2023-04-04T01:20:45.049Z,1.74
2023-04-04T01:23:13.148Z,1.74
2023-04-04T01:25:42.926Z,1.75
2023-04-04T01:28:11.367Z,1.79
2023-04-04T01:30:39.535Z,1.74
2023-04-04T01:33:09.688Z,1.71
2023-04-04T01:35:42.446Z,1.73
2023-04-04T01:38:25.852Z,1.64
2023-04-04T01:40:57.283Z,1.70
2023-04-04T01:43:25.264Z,1.64
2023-04-04T01:45:53.554Z,1.54
2023-04-04T01:48:22.396Z,1.59
2023-04-04T01:50:50.659Z,1.60
2023-04-04T01:53:18.692Z,1.62
2023-04-04T01:55:47.111Z,1.66
2023-04-04T01:58:16.729Z,1.62
2023-04-04T02:00:44.675Z,1.45
2023-04-04T02:03:12.729Z,1.57
2023-04-04T02:05:41.008Z,1.52
2023-04-04T02:08:08.988Z,1.53
2023-04-04T02:10:36.943Z,1.57
2023-04-04T02:13:05.009Z,1.52
2023-04-04T02:15:34.643Z,1.56
2023-04-04T02:18:03.641Z,1.36
2023-04-04T02:20:31.783Z,1.26
2023-04-04T02:22:59.785Z,1.49
2023-04-04T02:25:27.931Z,1.45
2023-04-04T02:27:56.177Z,1.47
2023-04-04T02:30:24.220Z,1.47
2023-04-04T02:32:53.650Z,1.32
2023-04-04T02:35:21.731Z,1.43
2023-04-04T02:37:50.066Z,1.41
2023-04-04T02:40:19.201Z,1.45
2023-04-04T02:42:47.173Z,1.37
2023-04-04T02:45:15.284Z,1.47
2023-04-04T02:47:43.767Z,1.40
2023-04-04T02:50:13.774Z,1.41
2023-04-04T02:52:41.796Z,1.44
2023-04-04T02:55:10.618Z,1.46
2023-04-04T02:57:38.650Z,1.37
2023-04-04T03:00:08.207Z,1.40
2023-04-04T03:02:36.379Z,1.39
2023-04-04T03:05:07.129Z,1.43
2023-04-04T03:07:38.611Z,1.44
2023-04-04T03:10:07.422Z,1.30
2023-04-04T03:12:35.481Z,1.36
2023-04-04T03:15:05.498Z,1.29
2023-04-04T03:17:33.911Z,1.30
2023-04-04T03:20:01.920Z,1.23
2023-04-04T03:22:29.862Z,1.23
2023-04-04T03:24:59.806Z,1.18
2023-04-04T03:27:27.756Z,1.11
2023-04-04T03:29:55.735Z,1.17
2023-04-04T03:32:23.760Z,1.16
2023-04-04T03:34:52.142Z,1.10
2023-04-04T03:37:20.170Z,1.16
2023-04-04T03:39:48.519Z,1.18
2023-04-04T03:42:18.040Z,1.09
2023-04-04T03:44:46.306Z,1.09
2023-04-04T03:47:15.130Z,1.02
2023-04-04T03:49:43.142Z,1.10
2023-04-04T03:52:12.435Z,1.10
2023-04-04T03:54:41.810Z,1.04
2023-04-04T03:57:09.889Z,1.01
2023-04-04T03:59:41.880Z,0.88
2023-04-04T04:02:09.946Z,0.63
2023-04-04T04:04:37.972Z,0.74
2023-04-04T04:07:06.037Z,0.65
2023-04-04T04:09:34.113Z,0.51
2023-04-04T04:12:02.469Z,0.64
2023-04-04T04:14:30.582Z,0.63
2023-04-04T04:17:00.457Z,0.48
2023-04-04T04:19:28.456Z,0.65
2023-04-04T04:22:00.327Z,0.51
2023-04-04T04:24:29.193Z,0.66
2023-04-04T04:27:00.889Z,0.78
2023-04-04T04:29:30.147Z,0.77
2023-04-04T04:32:00.999Z,0.81
2023-04-04T04:34:29.330Z,0.57
2023-04-04T04:36:58.002Z,0.58
2023-04-04T04:39:26.070Z,0.72
2023-04-04T04:41:54.544Z,0.84
2023-04-04T04:44:22.472Z,0.74
2023-04-04T04:46:50.522Z,0.77
2023-04-04T04:49:19.950Z,0.77
2023-04-04T04:51:49.304Z,0.71
2023-04-04T04:54:17.317Z,0.69
2023-04-04T04:56:45.675Z,0.66
2023-04-04T04:59:15.161Z,0.64
2023-04-04T05:01:43.158Z,0.61
2023-04-04T05:04:11.605Z,0.64
2023-04-04T05:06:41.070Z,0.51
2023-04-04T05:09:09.013Z,0.65
2023-04-04T05:11:37.037Z,0.47
2023-04-04T05:14:05.173Z,0.35
2023-04-04T05:16:33.434Z,0.15
2023-04-04T05:19:01.847Z,0.48
2023-04-04T05:21:29.850Z,0.37
2023-04-04T05:23:59.973Z,0.66
2023-04-04T05:26:29.689Z,0.70
2023-04-04T05:28:59.309Z,0.46
2023-04-04T05:31:27.510Z,0.68
2023-04-04T05:33:56.329Z,0.71
2023-04-04T05:36:24.430Z,0.94
2023-04-04T05:38:52.447Z,1.03
2023-04-04T05:41:22.196Z,1.14
2023-04-04T05:43:50.188Z,1.28
2023-04-04T05:46:19.352Z,1.31
2023-04-04T05:48:47.384Z,1.39
2023-04-04T05:51:16.278Z,1.19
2023-04-04T05:53:47.926Z,1.42
2023-04-04T05:56:17.324Z,1.42
2023-04-04T05:58:47.131Z,1.39
2023-04-04T06:01:15.141Z,1.48
2023-04-04T06:03:43.220Z,1.31
2023-04-04T06:06:12.051Z,1.47
2023-04-04T06:08:53.004Z,1.52
2023-04-04T06:11:21.933Z,1.64
2023-04-04T06:13:52.943Z,1.77
2023-04-04T06:16:21.072Z,1.78
2023-04-04T06:18:49.172Z,1.82
2023-04-04T06:21:17.714Z,1.94
2023-04-04T06:23:45.736Z,1.95
2023-04-04T06:26:14.906Z,1.99
2023-04-04T06:28:49.717Z,2.06
2023-04-04T06:31:21.934Z,2.11
2023-04-04T06:33:49.972Z,2.14
2023-04-04T06:36:18.342Z,2.25
2023-04-04T06:38:46.475Z,2.33
2023-04-04T06:41:14.477Z,2.35
2023-04-04T06:43:42.585Z,2.12
2023-04-04T06:46:10.906Z,2.26
2023-04-04T06:48:40.287Z,2.29
2023-04-04T06:51:08.998Z,2.43
2023-04-04T06:53:37.451Z,2.35
2023-04-04T06:56:05.893Z,2.37
2023-04-04T06:58:34.193Z,2.15
2023-04-04T07:01:03.122Z,2.15
2023-04-04T07:03:31.208Z,2.34
2023-04-04T07:06:03.807Z,2.08
2023-04-04T07:08:36.082Z,2.04
2023-04-04T07:11:05.259Z,1.97
2023-04-04T07:13:33.623Z,2.05
2023-04-04T07:16:01.843Z,2.07
2023-04-04T07:18:29.935Z,2.34
2023-04-04T07:20:58.514Z,2.34
2023-04-04T07:23:29.229Z,2.32
2023-04-04T07:25:57.317Z,2.51
2023-04-04T07:28:25.457Z,2.65
2023-04-04T07:30:53.422Z,2.75
2023-04-04T07:33:21.479Z,2.73
2023-04-04T07:35:49.628Z,2.97
2023-04-04T07:38:17.824Z,2.93
2023-04-04T07:40:47.362Z,2.91
2023-04-04T07:43:15.307Z,3.04
2023-04-04T07:45:43.963Z,3.16
2023-04-04T07:48:11.997Z,3.13
2023-04-04T07:50:40.118Z,3.34
2023-04-04T07:53:08.553Z,3.42
2023-04-04T07:55:37.757Z,3.46
2023-04-04T07:58:08.296Z,3.67
2023-04-04T08:00:37.075Z,3.74
2023-04-04T08:03:05.321Z,3.32
2023-04-04T08:05:33.371Z,3.38
2023-04-04T08:08:01.849Z,3.74
2023-04-04T08:10:29.812Z,3.86
2023-04-04T08:12:58.915Z,3.85
2023-04-04T08:15:33.762Z,3.74
2023-04-04T08:18:02.129Z,3.98
2023-04-04T08:20:30.335Z,3.89
2023-04-04T08:22:58.621Z,3.97
2023-04-04T08:25:27.166Z,4.07
2023-04-04T08:27:58.087Z,3.92
2023-04-04T08:30:26.378Z,3.98
2023-04-04T08:32:56.030Z,4.10
2023-04-04T08:35:25.434Z,4.39
2023-04-04T08:37:53.763Z,4.20
2023-04-04T08:40:21.919Z,4.38
2023-04-04T08:42:50.149Z,4.49
2023-04-04T08:45:19.462Z,4.40
2023-04-04T08:47:48.386Z,4.44
2023-04-04T08:50:18.560Z,4.54
2023-04-04T08:52:46.619Z,4.86
2023-04-04T08:55:15.622Z,4.79
2023-04-04T08:57:43.675Z,4.82
2023-04-04T09:00:13.293Z,4.79
2023-04-04T09:02:44.451Z,4.95
2023-04-04T09:05:14.004Z,4.92
2023-04-04T09:07:43.690Z,4.93
2023-04-04T09:10:15.222Z,4.97
2023-04-04T09:12:44.921Z,5.09
2023-04-04T09:15:13.717Z,4.81
2023-04-04T09:17:41.831Z,5.06
2023-04-04T09:20:35.251Z,5.10
2023-04-04T09:23:06.484Z,5.10
2023-04-04T09:25:34.711Z,4.98
2023-04-04T09:28:05.591Z,5.20
2023-04-04T09:30:35.613Z,4.86
2023-04-04T09:33:05.472Z,5.02
2023-04-04T09:35:35.135Z,4.98
2023-04-04T09:38:04.622Z,5.03
2023-04-04T09:40:33.193Z,5.10
2023-04-04T09:43:02.288Z,5.34
2023-04-04T09:45:32.589Z,5.37
2023-04-04T09:48:01.311Z,5.52
2023-04-04T09:50:30.474Z,5.33
2023-04-04T09:52:59.371Z,5.57
2023-04-04T09:55:36.521Z,5.50
2023-04-04T09:58:13.060Z,5.61
2023-04-04T10:00:42.946Z,5.88
2023-04-04T10:03:11.069Z,5.72
2023-04-04T10:05:39.453Z,5.93
2023-04-04T10:08:17.959Z,5.94
2023-04-04T10:11:02.503Z,6.06
2023-04-04T10:13:37.145Z,6.06
2023-04-04T10:16:05.697Z,6.07
2023-04-04T10:18:34.619Z,6.13
2023-04-04T10:21:15.114Z,6.00
2023-04-04T10:23:46.630Z,6.03
2023-04-04T10:26:16.187Z,6.16
2023-04-04T10:28:44.320Z,5.98
2023-04-04T10:31:18.577Z,6.05
2023-04-04T10:33:49.792Z,6.00
2023-04-04T10:36:21.417Z,6.18
2023-04-04T10:38:53.054Z,6.04
2023-04-04T10:41:22.486Z,6.07
2023-04-04T10:43:51.227Z,6.24
2023-04-04T10:46:20.592Z,6.18
2023-04-04T10:48:48.683Z,6.46
2023-04-04T10:51:19.405Z,6.46
2023-04-04T10:53:47.443Z,6.33
2023-04-04T10:56:15.471Z,6.63
2023-04-04T10:58:48.235Z,6.64
2023-04-04T11:01:21.530Z,6.62
2023-04-04T11:04:27.245Z,7.01
2023-04-04T11:07:18.210Z,6.89
2023-04-04T11:10:26.014Z,6.88
2023-04-04T11:13:09.338Z,6.87
2023-04-04T11:15:48.928Z,6.74
2023-04-04T11:18:31.597Z,6.83
2023-04-04T11:21:03.750Z,7.05
2023-04-04T11:23:40.422Z,7.33
2023-04-04T11:26:09.270Z,7.49
2023-04-04T11:28:47.402Z,7.49
2023-04-04T11:31:32.675Z,7.39
2023-04-04T11:34:04.464Z,7.43
2023-04-04T11:36:56.471Z,7.21
2023-04-04T11:39:28.545Z,7.26
2023-04-04T11:41:58.924Z,6.96
2023-04-04T11:44:30.764Z,7.34
2023-04-04T11:47:06.076Z,7.47
2023-04-04T11:49:35.774Z,7.62
2023-04-04T11:52:05.934Z,7.56
2023-04-04T11:54:33.978Z,7.83
2023-04-04T11:57:03.581Z,7.27
2023-04-04T11:59:31.764Z,7.46
2023-04-04T12:02:02.947Z,7.37
2023-04-04T12:04:33.095Z,7.74
2023-04-04T12:07:01.242Z,7.71
2023-04-04T12:09:29.264Z,7.98
2023-04-04T12:11:58.118Z,7.63
2023-04-04T12:14:27.269Z,7.85
2023-04-04T12:16:56.811Z,7.95
2023-04-04T12:19:24.875Z,7.95
2023-04-04T12:21:54.591Z,8.11
2023-04-04T12:24:22.695Z,8.09
2023-04-04T12:26:52.457Z,8.13
2023-04-04T12:29:21.664Z,8.10
2023-04-04T12:31:49.750Z,8.03
2023-04-04T12:34:23.433Z,7.93
2023-04-04T12:36:54.794Z,8.25
2023-04-04T12:39:23.987Z,8.40
2023-04-04T12:41:57.414Z,8.25
2023-04-04T12:44:29.260Z,7.92
2023-04-04T12:46:58.888Z,8.03
2023-04-04T12:49:30.320Z,8.01
2023-04-04T12:52:04.437Z,8.41
2023-04-04T12:54:33.228Z,8.59
2023-04-04T12:57:04.355Z,8.80
2023-04-04T12:59:34.047Z,8.74
2023-04-04T13:02:03.641Z,8.61
2023-04-04T13:04:31.723Z,8.75
2023-04-04T13:07:02.045Z,9.03
2023-04-04T13:09:30.161Z,8.76
2023-04-04T13:12:00.136Z,8.91
2023-04-04T13:14:28.681Z,8.55
2023-04-04T13:17:05.860Z,8.46
2023-04-04T13:19:34.437Z,9.02
2023-04-04T13:22:03.945Z,8.69
2023-04-04T13:24:32.156Z,8.69
2023-04-04T13:27:01.019Z,8.27
2023-04-04T13:29:29.068Z,8.28
2023-04-04T13:31:57.646Z,8.18
2023-04-04T13:34:26.770Z,8.50
2023-04-04T13:36:56.356Z,8.80
2023-04-04T13:39:25.873Z,8.65
2023-04-04T13:41:53.990Z,8.89
2023-04-04T13:44:21.971Z,8.50
2023-04-04T13:46:50.018Z,8.36
2023-04-04T13:49:19.173Z,8.45
2023-04-04T13:51:47.985Z,8.65
2023-04-04T13:54:16.257Z,8.71
2023-04-04T13:56:46.942Z,8.59
2023-04-04T13:59:14.941Z,9.00
2023-04-04T14:01:43.241Z,9.23
2023-04-04T14:07:11.202Z,9.17
2023-04-04T14:09:39.672Z,9.02
2023-04-04T14:12:09.368Z,8.80
2023-04-04T14:14:37.953Z,8.93
2023-04-04T14:17:06.399Z,9.12
2023-04-04T14:19:34.563Z,9.22
2023-04-04T14:22:02.715Z,9.14
2023-04-04T14:24:30.670Z,9.01
2023-04-04T14:26:59.048Z,9.33
2023-04-04T14:29:28.465Z,8.85
2023-04-04T14:31:58.061Z,8.84
2023-04-04T14:34:28.072Z,9.31
2023-04-04T14:36:56.122Z,9.26
2023-04-04T14:39:25.473Z,9.19
2023-04-04T14:41:54.002Z,8.98
2023-04-04T14:44:22.485Z,9.15
2023-04-04T14:46:53.068Z,9.18
2023-04-04T14:49:21.132Z,9.21
2023-04-04T14:51:50.119Z,9.38
2023-04-04T14:54:18.206Z,9.31
2023-04-04T14:56:47.439Z,9.54
2023-04-04T14:59:19.850Z,9.34
2023-04-04T15:01:55.162Z,9.32
2023-04-04T15:04:25.160Z,9.28
2023-04-04T15:06:53.691Z,9.42
2023-04-04T15:09:21.743Z,9.38
2023-04-04T15:11:52.441Z,9.71
2023-04-04T15:14:20.763Z,9.86
2023-04-04T15:16:48.886Z,9.93
2023-04-04T15:19:16.975Z,9.80
2023-04-04T15:21:49.200Z,9.58
2023-04-04T15:24:18.613Z,9.62
2023-04-04T15:26:47.405Z,9.83
2023-04-04T15:29:15.785Z,9.41
2023-04-04T15:31:43.909Z,9.16
2023-04-04T15:34:12.672Z,9.38
2023-04-04T15:36:44.379Z,9.50
2023-04-04T15:39:14.005Z,9.53
2023-04-04T15:41:42.159Z,9.55
2023-04-04T15:44:10.329Z,9.48
2023-04-04T15:46:38.755Z,9.28
2023-04-04T15:49:06.933Z,9.52
2023-04-04T15:51:36.293Z,9.51
2023-04-04T15:54:04.346Z,9.65
2023-04-04T15:56:33.783Z,9.76
2023-04-04T15:59:01.854Z,9.97
2023-04-04T16:01:30.250Z,9.87
2023-04-04T16:03:58.811Z,9.86
2023-04-04T16:06:27.289Z,10.00
2023-04-04T16:08:55.614Z,10.10
2023-04-04T16:11:23.736Z,10.07
2023-04-04T16:13:53.369Z,10.20
2023-04-04T16:16:21.824Z,10.41
2023-04-04T16:18:50.207Z,10.36
2023-04-04T16:21:18.343Z,9.83
2023-04-04T16:23:47.491Z,10.31
2023-04-04T16:26:17.478Z,10.49
2023-04-04T16:28:47.185Z,10.38
2023-04-04T16:31:17.938Z,10.53
2023-04-04T16:33:47.798Z,10.63
2023-04-04T16:36:15.927Z,10.48
2023-04-04T16:38:46.146Z,10.30
2023-04-04T16:41:14.195Z,10.40
2023-04-04T16:43:43.013Z,10.32
2023-04-04T16:46:11.060Z,10.10
2023-04-04T16:48:40.572Z,10.19
2023-04-04T16:51:08.633Z,9.42
2023-04-04T16:53:37.243Z,9.25
2023-04-04T16:56:05.860Z,9.16
2023-04-04T16:58:33.907Z,8.80
2023-04-04T17:01:02.415Z,8.69
2023-04-04T17:03:30.829Z,8.45
2023-04-04T17:06:01.826Z,8.14
2023-04-04T17:08:29.893Z,7.97
2023-04-04T17:10:57.855Z,8.00
2023-04-04T17:13:25.899Z,7.79
2023-04-04T17:15:54.142Z,7.71
2023-04-04T17:18:22.070Z,7.59
2023-04-04T17:20:50.125Z,7.60
2023-04-04T17:23:19.545Z,7.47
2023-04-04T17:25:47.631Z,7.38
2023-04-04T17:28:15.688Z,7.16
2023-04-04T17:30:43.705Z,7.11
2023-04-04T17:33:11.716Z,7.34
2023-04-04T17:35:40.314Z,7.25
2023-04-04T17:38:08.343Z,7.16
2023-04-04T17:40:40.714Z,7.02
2023-04-04T17:43:09.410Z,7.01
2023-04-04T17:45:37.857Z,6.85
2023-04-04T17:48:06.673Z,6.77
2023-04-04T17:50:34.713Z,6.76
2023-04-04T17:53:02.970Z,6.51
2023-04-04T17:55:30.935Z,6.58
2023-04-04T17:58:00.539Z,6.49
2023-04-04T18:00:29.805Z,6.48
2023-04-04T18:02:58.205Z,6.48
2023-04-04T18:05:27.128Z,6.35
2023-04-04T18:07:55.168Z,6.33
2023-04-04T18:10:23.207Z,6.35
2023-04-04T18:12:52.166Z,6.43
2023-04-04T18:15:21.628Z,6.19
2023-04-04T18:17:49.775Z,6.21
2023-04-04T18:20:27.739Z,6.04
2023-04-04T18:23:07.114Z,6.13
2023-04-04T18:25:35.305Z,6.02
2023-04-04T18:28:06.782Z,5.86
2023-04-04T18:30:37.466Z,5.72
2023-04-04T18:33:05.824Z,5.71
2023-04-04T18:35:34.141Z,5.77
2023-04-04T18:40:30.684Z,5.53
2023-04-04T18:43:03.218Z,5.56
2023-04-04T18:45:40.321Z,5.39
2023-04-04T18:48:12.760Z,5.42
2023-04-04T18:50:41.071Z,5.52
2023-04-04T18:53:10.138Z,5.51
2023-04-04T18:55:38.211Z,5.40
2023-04-04T18:58:06.939Z,5.50
2023-04-04T19:00:37.756Z,5.50
2023-04-04T19:03:07.645Z,5.41
2023-04-04T19:05:38.019Z,5.31
2023-04-04T19:08:07.622Z,5.33
2023-04-04T19:10:35.947Z,5.25
2023-04-04T19:13:06.170Z,5.17
2023-04-04T19:15:34.846Z,5.22
2023-04-04T19:18:08.843Z,5.38
2023-04-04T19:20:38.546Z,5.36
2023-04-04T19:23:10.370Z,5.41
2023-04-04T19:25:40.195Z,5.35
2023-04-04T19:28:10.822Z,5.33
2023-04-04T19:30:52.917Z,5.35
2023-04-04T19:33:32.509Z,5.26
2023-04-04T19:36:07.710Z,5.33
2023-04-04T19:38:36.557Z,5.28
2023-04-04T19:41:05.183Z,5.36
2023-04-04T19:43:33.682Z,5.36
2023-04-04T19:46:08.342Z,5.37
2023-04-04T19:48:44.181Z,5.49
2023-04-04T19:51:29.240Z,5.55
2023-04-04T19:53:58.872Z,5.34
2023-04-04T19:56:27.513Z,5.50
2023-04-04T19:58:56.303Z,5.38
2023-04-04T20:01:25.445Z,5.40
2023-04-04T20:03:53.604Z,5.45
2023-04-04T20:06:27.344Z,5.34
2023-04-04T20:08:59.820Z,5.23
2023-04-04T20:11:30.190Z,5.24
2023-04-04T20:13:58.282Z,5.44
2023-04-04T20:16:26.502Z,5.25
2023-04-04T20:18:57.827Z,5.26
2023-04-04T20:21:28.637Z,5.25
2023-04-04T20:23:57.884Z,5.20
2023-04-04T20:26:55.099Z,5.21
2023-04-04T20:29:24.418Z,5.20
2023-04-04T20:31:53.441Z,5.32
2023-04-04T20:34:45.750Z,5.14
2023-04-04T20:37:16.547Z,5.15
2023-04-04T20:39:47.697Z,5.25
2023-04-04T20:42:35.056Z,5.13
2023-04-04T20:45:34.873Z,5.01
2023-04-04T20:48:06.661Z,5.01
2023-04-04T20:50:46.526Z,5.10
2023-04-04T20:53:22.591Z,5.09
2023-04-04T20:55:51.542Z,5.01
2023-04-04T20:58:29.824Z,5.18
2023-04-04T21:00:58.894Z,5.10
2023-04-04T21:03:37.000Z,5.23
2023-04-04T21:06:12.664Z,5.11
2023-04-04T21:08:44.809Z,5.15
2023-04-04T21:11:12.961Z,5.10
2023-04-04T21:13:41.466Z,5.17
2023-04-04T21:16:13.227Z,5.24
2023-04-04T21:18:41.908Z,5.20
2023-04-04T21:21:20.672Z,5.34
2023-04-04T21:23:51.156Z,5.34
2023-04-04T21:26:41.784Z,5.13
2023-04-04T21:29:11.447Z,5.10
2023-04-04T21:31:40.123Z,5.26
2023-04-04T21:34:10.608Z,5.29
2023-04-04T21:36:38.645Z,5.24
2023-04-04T21:39:11.447Z,5.32
2023-04-04T21:41:39.440Z,5.08
2023-04-04T21:44:09.025Z,5.12
2023-04-04T21:46:37.954Z,5.08
2023-04-04T21:49:06.485Z,5.11
2023-04-04T21:51:34.385Z,5.01
2023-04-04T21:54:02.577Z,5.01
2023-04-04T21:56:32.794Z,4.81
2023-04-04T21:59:01.518Z,4.87
2023-04-04T22:01:30.710Z,4.82
2023-04-04T22:03:59.036Z,4.77
2023-04-04T22:06:28.360Z,4.83
2023-04-04T22:08:57.396Z,4.76
2023-04-04T22:11:26.217Z,4.71
2023-04-04T22:14:04.292Z,4.68
2023-04-04T22:16:36.949Z,4.36
2023-04-04T22:19:05.774Z,4.55
2023-04-04T22:21:37.068Z,4.56
2023-04-04T22:24:06.899Z,4.53
2023-04-04T22:26:35.478Z,4.55
2023-04-04T22:29:06.188Z,4.44
2023-04-04T22:31:35.324Z,4.47
2023-04-04T22:34:04.068Z,4.46
2023-04-04T22:36:34.582Z,4.45
2023-04-04T22:39:02.997Z,4.37
2023-04-04T22:41:31.083Z,4.31
2023-04-04T22:43:59.349Z,4.36
2023-04-04T22:46:30.022Z,4.34
2023-04-04T22:49:06.462Z,4.22
2023-04-04T22:51:43.348Z,4.25
2023-04-04T22:54:13.163Z,4.24
2023-04-04T22:56:41.849Z,4.13
2023-04-04T22:59:10.023Z,4.14
2023-04-04T23:01:41.290Z,4.14
2023-04-04T23:04:09.821Z,4.10
2023-04-04T23:06:38.390Z,4.12
2023-04-04T23:09:07.963Z,3.76
2023-04-04T23:11:37.069Z,3.60
2023-04-04T23:14:08.853Z,3.70
2023-04-04T23:16:37.383Z,3.88
2023-04-04T23:19:06.797Z,3.65
2023-04-04T23:21:34.839Z,3.87
2023-04-04T23:24:03.004Z,3.95
2023-04-04T23:26:32.610Z,4.03
2023-04-04T23:29:01.541Z,4.09
2023-04-04T23:31:29.851Z,4.13
2023-04-04T23:33:58.238Z,4.16
2023-04-04T23:36:27.726Z,4.18
2023-04-04T23:38:55.737Z,4.21
2023-04-04T23:41:23.730Z,4.20
2023-04-04T23:43:51.813Z,4.11
2023-04-04T23:46:20.009Z,4.20
2023-04-04T23:48:49.543Z,4.28
2023-04-04T23:51:17.687Z,4.39
2023-04-04T23:53:47.094Z,4.38
2023-04-04T23:56:15.117Z,4.40
2023-04-04T23:58:43.054Z,4.46
